createdAt,value
2018-10-18T12:36:27.661Z,16.67
2018-10-18T12:39:05.123Z,17.00
2018-10-18T12:41:40.639Z,17.63
2018-10-18T12:44:16.888Z,16.53
2018-10-18T12:46:53.959Z,15.70
2018-10-18T12:49:32.092Z,16.47
2018-10-18T12:52:07.694Z,17.03
2018-10-18T12:54:45.157Z,16.47
2018-10-18T12:57:20.420Z,16.50
2018-10-18T12:59:56.533Z,16.77
2018-10-18T13:02:31.791Z,15.57
2018-10-18T13:05:08.594Z,16.70
2018-10-18T13:07:45.127Z,16.20
2018-10-18T13:10:19.686Z,16.23
2018-10-18T13:12:56.124Z,16.07
2018-10-18T13:15:36.716Z,17.60
2018-10-18T13:18:14.724Z,15.37
2018-10-18T13:20:50.674Z,16.40
2018-10-18T13:23:27.143Z,17.53
2018-10-18T13:26:07.711Z,17.67
2018-10-18T13:28:48.141Z,17.83
2018-10-18T13:31:22.689Z,17.27
2018-10-18T13:33:58.778Z,17.97
2018-10-18T13:36:34.803Z,17.00
2018-10-18T13:39:13.841Z,18.47
2018-10-18T13:41:51.419Z,18.33
2018-10-18T13:44:28.710Z,18.23
2018-10-18T13:47:04.973Z,19.63
2018-10-18T13:49:40.617Z,17.83
2018-10-18T13:52:17.701Z,19.27
2018-10-18T13:54:53.759Z,20.10
2018-10-18T13:57:32.884Z,17.83
2018-10-18T14:00:33.728Z,21.13
2018-10-18T14:03:11.628Z,18.43
2018-10-18T14:05:47.762Z,19.27
2018-10-18T14:08:23.625Z,18.80
2018-10-18T14:11:01.713Z,18.13
2018-10-18T14:13:36.680Z,19.13
2018-10-18T14:16:14.786Z,18.40
2018-10-18T14:18:48.586Z,17.63
2018-10-18T14:21:46.767Z,18.47
2018-10-18T14:24:22.612Z,18.83
2018-10-18T14:27:01.541Z,18.93
2018-10-18T14:29:39.028Z,18.63
2018-10-18T14:32:14.753Z,18.43
2018-10-18T14:34:57.708Z,17.83
2018-10-18T14:37:32.734Z,17.37
2018-10-18T14:40:07.770Z,17.50
2018-10-18T14:42:44.648Z,17.30
2018-10-18T14:45:21.748Z,19.00
2018-10-18T14:48:01.677Z,18.60
2018-10-18T14:50:36.830Z,18.93
2018-10-18T14:53:11.849Z,19.53
2018-10-18T14:55:54.814Z,19.33
2018-10-18T14:58:32.659Z,18.53
2018-10-18T15:01:07.702Z,18.00
2018-10-18T15:03:43.958Z,19.90
2018-10-18T15:06:37.024Z,21.10
2018-10-18T15:09:14.094Z,20.33
2018-10-18T15:11:49.947Z,20.90
2018-10-18T15:14:29.690Z,20.50
2018-10-18T15:17:06.646Z,21.03
2018-10-18T15:19:42.624Z,21.97
2018-10-18T15:22:19.191Z,20.17
2018-10-18T15:24:54.738Z,21.00
2018-10-18T15:27:32.088Z,21.60
2018-10-18T15:30:08.494Z,22.33
2018-10-18T15:32:44.182Z,20.30
2018-10-18T15:35:19.790Z,19.23
2018-10-18T15:37:54.908Z,20.33
2018-10-18T15:40:30.228Z,20.37
2018-10-18T15:43:06.731Z,21.03
2018-10-18T15:45:43.815Z,21.97
2018-10-18T15:48:20.689Z,21.10
2018-10-18T15:50:56.384Z,21.03
2018-10-18T15:53:32.809Z,22.30
2018-10-18T15:56:07.841Z,19.97
2018-10-18T16:01:35.933Z,21.53
2018-10-18T16:04:13.014Z,21.10
2018-10-18T16:06:48.866Z,19.73
2018-10-18T16:09:25.947Z,22.70
2018-10-18T16:12:08.768Z,21.67
2018-10-18T16:14:45.021Z,20.87
2018-10-18T16:17:21.091Z,22.17
2018-10-18T16:19:58.178Z,20.93
2018-10-18T16:22:32.786Z,22.30
2018-10-18T16:25:09.871Z,21.43
2018-10-18T16:27:45.923Z,22.23
2018-10-18T16:30:22.804Z,20.70
2018-10-18T16:32:57.839Z,21.10
2018-10-18T16:35:34.915Z,20.83
2018-10-18T16:38:13.865Z,20.87
2018-10-18T16:40:51.178Z,23.40
2018-10-18T16:43:32.330Z,22.77
2018-10-18T16:46:07.962Z,22.47
2018-10-18T16:48:44.627Z,22.30
2018-10-18T16:51:24.216Z,21.97
2018-10-18T16:54:02.997Z,22.17
2018-10-18T16:56:38.944Z,23.87
2018-10-18T16:59:15.201Z,22.07
2018-10-18T17:01:49.825Z,23.43
2018-10-18T17:04:25.044Z,23.10
2018-10-18T17:07:02.969Z,23.07
2018-10-18T17:09:40.866Z,21.83
2018-10-18T17:12:17.039Z,22.73
2018-10-18T17:14:51.960Z,24.77
2018-10-18T17:17:30.467Z,22.90
2018-10-18T17:20:13.240Z,23.40
2018-10-18T17:22:55.900Z,23.10
2018-10-18T17:25:30.934Z,23.90
2018-10-18T17:28:06.993Z,22.70
2018-10-18T17:30:51.241Z,23.43
2018-10-18T17:42:07.439Z,22.00
2018-10-18T17:44:42.931Z,22.27
2018-10-18T17:53:07.007Z,22.17
2018-10-18T18:04:20.943Z,23.67
2018-10-18T18:09:51.917Z,22.13
2018-10-18T18:12:29.806Z,21.50
2018-10-18T18:15:05.860Z,21.83
2018-10-18T18:17:46.831Z,24.23
2018-10-18T18:29:05.746Z,23.23
2018-10-18T18:31:54.909Z,21.27
2018-10-18T18:43:12.413Z,23.07
2018-10-18T18:45:50.901Z,22.93
2018-10-18T19:11:32.839Z,22.73
2018-10-18T19:31:34.401Z,22.97
2018-10-18T19:34:17.424Z,22.57
2018-10-18T19:54:20.008Z,23.13
2018-10-18T19:57:05.077Z,20.30
2018-10-18T19:59:43.999Z,23.27
2018-10-18T20:02:23.129Z,22.30
2018-10-18T20:05:01.439Z,21.03
2018-10-18T20:07:40.990Z,21.83
2018-10-18T20:27:33.118Z,24.80
2018-10-18T20:30:10.057Z,24.27
2018-10-18T20:53:00.158Z,22.93
2018-10-18T20:55:36.491Z,22.90
2018-10-18T20:58:12.838Z,24.63
2018-10-18T21:00:49.713Z,24.40
2018-10-18T21:03:27.819Z,24.03
2018-10-18T21:23:23.029Z,24.43
2018-10-18T21:25:59.524Z,24.80
2018-10-18T21:45:52.666Z,26.13
2018-10-18T21:48:28.924Z,26.23
2018-10-18T21:51:05.007Z,26.40
2018-10-18T21:53:41.855Z,24.27
2018-10-18T22:13:36.865Z,26.27
2018-10-18T22:16:12.925Z,26.53
2018-10-18T22:36:07.110Z,26.70
2018-10-18T22:38:41.123Z,27.00
2018-10-18T22:41:16.572Z,27.00
2018-10-18T22:43:54.466Z,26.30
2018-10-18T23:03:47.021Z,27.67
2018-10-18T23:06:22.049Z,28.30
2018-10-18T23:26:17.876Z,29.77
2018-10-18T23:28:53.116Z,29.30
2018-10-18T23:48:48.118Z,29.90
2018-10-18T23:51:23.154Z,30.07
